createdAt,value
2022-10-17T00:01:08.945Z,7.60
2022-10-17T00:03:38.693Z,7.70
2022-10-17T00:06:11.486Z,7.30
2022-10-17T00:08:41.921Z,8.70
2022-10-17T00:11:27.692Z,7.30
2022-10-17T00:13:57.043Z,6.60
2022-10-17T00:16:32.770Z,6.50
2022-10-17T00:19:00.899Z,7.70
2022-10-17T00:21:28.936Z,6.80
2022-10-17T00:23:56.720Z,7.00
2022-10-17T00:26:24.563Z,8.50
2022-10-17T00:28:53.468Z,7.10
2022-10-17T00:31:24.705Z,7.70
2022-10-17T00:33:53.314Z,7.70
2022-10-17T00:36:24.800Z,9.40
2022-10-17T00:38:59.247Z,7.00
2022-10-17T00:41:33.331Z,7.90
2022-10-17T00:44:25.555Z,8.50
2022-10-17T00:46:53.855Z,8.40
2022-10-17T00:49:24.719Z,6.90
2022-10-17T00:51:57.602Z,8.30
2022-10-17T00:54:39.296Z,6.40
2022-10-17T00:57:07.546Z,7.80
2022-10-17T00:59:38.441Z,7.70
2022-10-17T01:02:13.671Z,7.50
2022-10-17T01:04:48.982Z,6.90
2022-10-17T01:07:17.847Z,8.80
2022-10-17T01:09:47.549Z,7.00
2022-10-17T01:13:06.109Z,7.10
2022-10-17T01:16:08.733Z,6.70
2022-10-17T01:19:07.420Z,7.30
2022-10-17T01:22:09.835Z,8.30
2022-10-17T01:24:58.670Z,8.40
2022-10-17T01:27:35.638Z,5.60
2022-10-17T01:30:25.174Z,8.80
2022-10-17T01:33:11.583Z,6.70
2022-10-17T01:35:51.130Z,6.80
2022-10-17T01:38:27.441Z,7.10
2022-10-17T01:41:23.426Z,7.30
2022-10-17T01:44:00.708Z,7.50
2022-10-17T01:46:38.394Z,6.50
2022-10-17T01:49:10.886Z,8.60
2022-10-17T01:51:53.121Z,6.40
2022-10-17T01:54:28.881Z,6.30
2022-10-17T01:57:01.695Z,6.50
2022-10-17T01:59:38.321Z,6.30
2022-10-17T02:02:08.051Z,6.40
2022-10-17T02:04:36.451Z,7.20
2022-10-17T02:07:13.565Z,6.80
2022-10-17T02:09:41.341Z,6.90
2022-10-17T02:12:21.491Z,5.80
2022-10-17T02:15:13.572Z,6.50
2022-10-17T02:18:18.667Z,6.00
2022-10-17T02:21:15.129Z,5.80
2022-10-17T02:24:06.420Z,6.80
2022-10-17T02:26:44.945Z,6.40
2022-10-17T02:29:25.810Z,5.80
2022-10-17T02:32:07.054Z,5.60
2022-10-17T02:34:42.896Z,6.20
2022-10-17T02:37:17.249Z,7.50
2022-10-17T02:39:46.379Z,6.70
2022-10-17T02:42:16.273Z,6.30
2022-10-17T02:44:46.651Z,6.90
2022-10-17T02:47:36.801Z,6.90
2022-10-17T02:50:05.860Z,6.20
2022-10-17T02:52:52.800Z,5.40
2022-10-17T02:55:29.739Z,6.40
2022-10-17T02:58:06.860Z,7.10
2022-10-17T03:00:35.471Z,9.10
2022-10-17T03:03:25.024Z,7.40
2022-10-17T03:05:53.699Z,7.70
2022-10-17T03:08:22.910Z,8.20
2022-10-17T03:10:51.662Z,5.90
2022-10-17T03:13:19.667Z,5.90
2022-10-17T03:15:47.831Z,6.70
2022-10-17T03:18:15.557Z,5.90
2022-10-17T03:20:43.271Z,7.40
2022-10-17T03:23:11.054Z,7.20
2022-10-17T03:25:38.926Z,5.90
2022-10-17T03:28:06.764Z,5.60
2022-10-17T03:30:34.459Z,7.50
2022-10-17T03:33:02.193Z,5.50
2022-10-17T03:35:29.916Z,6.20
2022-10-17T03:37:58.280Z,6.80
2022-10-17T03:40:25.964Z,7.10
2022-10-17T03:42:53.725Z,7.40
2022-10-17T03:45:21.454Z,9.30
2022-10-17T03:47:49.252Z,6.80
2022-10-17T03:50:17.273Z,6.90
2022-10-17T03:52:49.285Z,7.50
2022-10-17T03:55:17.437Z,6.40
2022-10-17T03:57:45.694Z,5.80
2022-10-17T04:00:14.221Z,7.10
2022-10-17T04:02:42.427Z,5.90
2022-10-17T04:05:10.118Z,7.00
2022-10-17T04:07:38.267Z,6.70
2022-10-17T04:10:06.815Z,6.50
2022-10-17T04:12:34.530Z,7.30
2022-10-17T04:15:02.279Z,6.70
2022-10-17T04:17:37.225Z,5.00
2022-10-17T04:20:07.076Z,5.80
2022-10-17T04:22:34.902Z,6.50
2022-10-17T04:25:02.662Z,5.70
2022-10-17T04:27:30.412Z,6.70
2022-10-17T04:29:58.214Z,6.10
2022-10-17T04:32:26.475Z,7.10
2022-10-17T04:34:54.389Z,6.30
2022-10-17T04:37:22.249Z,6.80
2022-10-17T04:39:49.923Z,7.20
2022-10-17T04:42:17.657Z,6.00
2022-10-17T04:44:45.418Z,5.20
2022-10-17T04:47:13.061Z,8.50
2022-10-17T04:52:09.478Z,7.30
2022-10-17T04:54:37.190Z,6.10
2022-10-17T04:57:04.895Z,6.80
2022-10-17T04:59:32.786Z,8.00
2022-10-17T05:02:00.497Z,7.00
2022-10-17T05:04:28.303Z,7.90
2022-10-17T05:06:55.982Z,8.30
2022-10-17T05:09:23.862Z,9.40
2022-10-17T05:11:51.675Z,7.50
2022-10-17T05:14:19.455Z,6.90
2022-10-17T05:16:47.169Z,8.80
2022-10-17T05:19:14.954Z,9.50
2022-10-17T05:21:42.672Z,7.70
2022-10-17T05:24:16.604Z,7.30
2022-10-17T05:26:44.374Z,7.70
2022-10-17T05:29:12.071Z,7.10
2022-10-17T05:31:39.845Z,8.00
2022-10-17T05:34:10.232Z,7.50
2022-10-17T05:36:41.163Z,8.20
2022-10-17T05:39:09.053Z,6.40
2022-10-17T05:41:36.784Z,6.50
2022-10-17T05:44:05.697Z,7.00
2022-10-17T05:46:33.709Z,6.00
2022-10-17T05:49:01.445Z,8.10
2022-10-17T05:51:29.360Z,9.00
2022-10-17T05:53:57.184Z,8.60
2022-10-17T05:56:24.922Z,9.30
2022-10-17T05:58:56.243Z,9.00
2022-10-17T06:01:26.704Z,9.00
2022-10-17T06:03:54.446Z,8.70
2022-10-17T06:06:23.600Z,8.30
2022-10-17T06:08:51.413Z,11.10
2022-10-17T06:11:19.170Z,9.70
2022-10-17T06:13:46.854Z,11.00
2022-10-17T06:16:14.613Z,10.50
2022-10-17T06:18:42.411Z,7.90
2022-10-17T06:21:12.536Z,9.10
2022-10-17T06:23:40.436Z,8.60
2022-10-17T06:26:08.667Z,11.10
2022-10-17T06:28:37.364Z,10.90
2022-10-17T06:31:13.806Z,13.00
2022-10-17T06:33:42.180Z,10.30
2022-10-17T06:36:13.556Z,10.60
2022-10-17T06:38:41.901Z,11.40
2022-10-17T06:41:19.054Z,10.40
2022-10-17T06:43:47.754Z,11.70
2022-10-17T06:46:18.544Z,12.70
2022-10-17T06:48:46.281Z,10.30
2022-10-17T06:51:14.077Z,10.80
2022-10-17T06:53:41.830Z,7.30
2022-10-17T06:56:10.963Z,12.20
2022-10-17T06:58:40.883Z,10.40
2022-10-17T07:01:12.641Z,12.50
2022-10-17T07:03:41.424Z,9.10
2022-10-17T07:06:13.593Z,9.40
2022-10-17T07:08:45.890Z,10.00
2022-10-17T07:11:18.601Z,10.50
2022-10-17T07:13:47.337Z,17.40
2022-10-17T07:16:17.027Z,10.70
2022-10-17T07:18:49.237Z,13.20
2022-10-17T07:21:17.731Z,13.90
2022-10-17T07:23:45.549Z,12.60
2022-10-17T07:26:17.578Z,13.20
2022-10-17T07:28:47.822Z,11.60
2022-10-17T07:31:19.666Z,11.30
2022-10-17T07:33:48.079Z,12.80
2022-10-17T07:36:17.191Z,13.70
2022-10-17T07:38:45.033Z,14.10
2022-10-17T07:41:17.796Z,14.60
2022-10-17T07:43:49.326Z,15.90
2022-10-17T07:46:17.079Z,12.70
2022-10-17T07:48:44.811Z,13.10
2022-10-17T07:51:12.556Z,18.30
2022-10-17T07:53:42.793Z,12.30
2022-10-17T07:56:13.299Z,13.90
2022-10-17T07:58:41.289Z,10.70
2022-10-17T08:01:15.668Z,11.30
2022-10-17T08:03:46.098Z,7.40
2022-10-17T08:06:14.277Z,7.40
2022-10-17T08:08:42.810Z,6.30
2022-10-17T08:11:14.532Z,8.00
2022-10-17T08:13:43.405Z,8.40
2022-10-17T08:16:13.395Z,7.80
2022-10-17T08:18:43.152Z,10.10
2022-10-17T08:21:13.531Z,5.00
2022-10-17T08:23:41.599Z,11.30
2022-10-17T08:26:13.564Z,9.60
2022-10-17T08:28:41.734Z,7.00
2022-10-17T08:31:13.772Z,5.70
2022-10-17T08:33:42.931Z,7.00
2022-10-17T08:36:14.941Z,5.50
2022-10-17T08:38:43.820Z,6.80
2022-10-17T08:41:56.836Z,7.20
2022-10-17T08:44:57.896Z,8.90
2022-10-17T08:47:38.427Z,7.10
2022-10-17T08:50:28.551Z,7.00
2022-10-17T08:53:06.114Z,7.10
2022-10-17T08:55:42.986Z,8.40
2022-10-17T08:58:20.210Z,8.80
2022-10-17T09:01:30.805Z,9.10
2022-10-17T09:04:16.426Z,10.80
2022-10-17T09:07:00.220Z,6.90
2022-10-17T09:09:54.568Z,8.80
2022-10-17T09:13:30.793Z,8.80
2022-10-17T09:16:33.046Z,11.90
2022-10-17T09:19:15.836Z,9.80
2022-10-17T09:21:53.857Z,8.90
2022-10-17T09:24:43.284Z,9.80
2022-10-17T09:27:35.664Z,10.10
2022-10-17T09:30:43.674Z,10.70
2022-10-17T09:33:34.689Z,9.80
2022-10-17T09:36:11.947Z,10.80
2022-10-17T09:38:48.598Z,10.00
2022-10-17T09:44:30.432Z,14.50
2022-10-17T09:47:30.283Z,11.30
2022-10-17T09:49:58.161Z,10.90
2022-10-17T09:52:42.342Z,12.30
2022-10-17T09:55:32.863Z,10.30
2022-10-17T09:58:07.036Z,9.90
2022-10-17T10:00:47.723Z,10.70
2022-10-17T10:03:27.793Z,8.70
2022-10-17T10:06:06.550Z,11.30
2022-10-17T10:08:48.979Z,7.70
2022-10-17T10:11:18.235Z,10.70
2022-10-17T10:13:49.755Z,10.10
2022-10-17T10:16:33.327Z,10.20
2022-10-17T10:19:03.698Z,14.20
2022-10-17T10:21:37.120Z,10.40
2022-10-17T10:24:15.069Z,9.60
2022-10-17T10:26:47.388Z,11.70
2022-10-17T10:29:34.991Z,8.80
2022-10-17T10:32:23.320Z,9.70
2022-10-17T10:35:04.014Z,9.70
2022-10-17T10:37:50.079Z,11.20
2022-10-17T10:40:25.355Z,10.60
2022-10-17T10:43:01.300Z,10.70
2022-10-17T10:45:47.679Z,9.40
2022-10-17T10:48:24.265Z,11.70
2022-10-17T10:51:18.057Z,9.40
2022-10-17T10:54:25.403Z,11.60
2022-10-17T10:56:58.086Z,11.60
2022-10-17T10:59:47.967Z,11.30
2022-10-17T11:02:40.509Z,11.30
2022-10-17T11:05:40.149Z,12.50
2022-10-17T11:08:38.225Z,11.30
2022-10-17T11:11:24.039Z,12.00
2022-10-17T11:14:03.851Z,13.60
2022-10-17T11:16:42.197Z,13.10
2022-10-17T11:20:23.251Z,13.20
2022-10-17T11:23:36.424Z,14.50
2022-10-17T11:26:14.293Z,13.60
2022-10-17T11:28:43.402Z,11.70
2022-10-17T11:31:15.026Z,11.80
2022-10-17T11:34:07.402Z,11.00
2022-10-17T11:36:42.124Z,12.00
2022-10-17T11:42:26.062Z,12.00
2022-10-17T11:45:16.081Z,12.00
2022-10-17T11:48:12.794Z,10.60
2022-10-17T11:53:56.407Z,13.50
2022-10-17T11:56:54.263Z,12.70
2022-10-17T11:59:30.929Z,12.20
2022-10-17T12:02:10.008Z,11.60
2022-10-17T12:05:02.507Z,12.20
2022-10-17T12:07:46.696Z,10.70
2022-10-17T12:10:25.501Z,10.20
2022-10-17T12:12:53.463Z,10.60
2022-10-17T12:15:23.511Z,10.10
2022-10-17T12:18:02.826Z,10.20
2022-10-17T12:20:34.910Z,10.80
2022-10-17T12:23:32.811Z,10.90
2022-10-17T12:26:05.433Z,12.00
2022-10-17T12:28:44.605Z,12.00
2022-10-17T12:31:28.541Z,12.20
2022-10-17T12:34:05.198Z,11.20
2022-10-17T12:36:33.297Z,13.40
2022-10-17T12:39:04.120Z,11.20
2022-10-17T12:41:38.111Z,8.70
2022-10-17T12:44:15.299Z,10.70
2022-10-17T12:47:10.927Z,9.60
2022-10-17T12:49:55.795Z,11.40
2022-10-17T12:52:31.806Z,11.40
2022-10-17T12:55:13.190Z,9.60
2022-10-17T12:57:53.801Z,12.80
2022-10-17T13:01:11.677Z,13.50
2022-10-17T13:03:46.944Z,12.00
2022-10-17T13:06:31.205Z,13.20
2022-10-17T13:09:09.113Z,14.00
2022-10-17T13:11:39.791Z,14.40
2022-10-17T13:14:14.705Z,14.30
2022-10-17T13:16:58.573Z,12.40
2022-10-17T13:19:32.802Z,14.70
2022-10-17T13:22:06.816Z,11.90
2022-10-17T13:24:41.510Z,12.90
2022-10-17T13:27:31.052Z,16.50
2022-10-17T13:30:02.183Z,12.90
2022-10-17T13:32:39.897Z,14.30
2022-10-17T13:35:17.429Z,12.50
2022-10-17T13:37:51.605Z,11.70
2022-10-17T13:40:49.537Z,11.80
2022-10-17T13:43:21.181Z,9.80
2022-10-17T13:45:58.091Z,10.00
2022-10-17T13:48:32.084Z,8.70
2022-10-17T13:51:07.858Z,11.40
2022-10-17T13:53:42.639Z,9.90
2022-10-17T13:56:29.906Z,10.40
2022-10-17T13:59:06.865Z,9.80
2022-10-17T14:01:35.188Z,9.90
2022-10-17T14:04:09.231Z,9.40
2022-10-17T14:06:49.535Z,11.20
2022-10-17T14:09:28.169Z,11.00
2022-10-17T14:12:12.993Z,10.70
2022-10-17T14:15:09.296Z,10.80
2022-10-17T14:17:38.833Z,11.80
2022-10-17T14:20:57.134Z,10.30
2022-10-17T14:25:48.966Z,12.40
2022-10-17T14:28:18.683Z,13.40
2022-10-17T14:30:56.724Z,12.60
2022-10-17T14:33:31.636Z,14.60
2022-10-17T14:36:02.640Z,11.90
2022-10-17T14:38:30.946Z,11.90
2022-10-17T14:41:43.848Z,12.50
2022-10-17T14:44:23.337Z,11.60
2022-10-17T14:47:18.167Z,10.60
2022-10-17T14:50:04.636Z,13.80
2022-10-17T14:52:34.923Z,14.10
2022-10-17T14:55:24.789Z,13.80
2022-10-17T14:57:52.663Z,13.40
2022-10-17T15:00:23.301Z,13.30
2022-10-17T15:02:54.831Z,14.70
2022-10-17T15:05:25.879Z,15.00
2022-10-17T15:07:53.862Z,12.30
2022-10-17T15:10:36.955Z,14.90
2022-10-17T15:13:26.536Z,11.10
2022-10-17T15:15:52.776Z,12.50
2022-10-17T15:18:21.095Z,13.60
2022-10-17T15:20:55.299Z,14.90
2022-10-17T15:23:32.585Z,14.90
2022-10-17T15:26:01.972Z,13.70
2022-10-17T15:28:29.982Z,15.10
2022-10-17T15:30:58.005Z,16.60
2022-10-17T15:33:25.776Z,17.20
2022-10-17T15:35:53.805Z,14.30
2022-10-17T15:38:21.836Z,15.70
2022-10-17T15:40:52.147Z,16.60
2022-10-17T15:43:22.986Z,16.00
2022-10-17T15:45:51.073Z,14.10
2022-10-17T15:48:29.695Z,16.40
2022-10-17T15:50:58.167Z,14.60
2022-10-17T15:53:25.949Z,14.90
2022-10-17T15:55:53.896Z,15.30
2022-10-17T15:58:21.754Z,16.50
2022-10-17T16:00:49.584Z,16.10
2022-10-17T16:03:17.374Z,14.60
2022-10-17T16:05:45.208Z,15.80
2022-10-17T16:08:12.998Z,13.50
2022-10-17T16:10:41.374Z,16.60
2022-10-17T16:13:20.764Z,15.60
2022-10-17T16:15:50.771Z,16.60
2022-10-17T16:18:21.342Z,16.00
2022-10-17T16:20:49.740Z,14.80
2022-10-17T16:23:17.495Z,17.70
2022-10-17T16:25:46.261Z,18.40
2022-10-17T16:28:14.258Z,19.00
2022-10-17T16:30:46.666Z,16.40
2022-10-17T16:33:15.675Z,20.90
2022-10-17T16:35:45.762Z,20.00
2022-10-17T16:38:13.700Z,18.40
2022-10-17T16:40:41.746Z,19.40
2022-10-17T16:43:13.898Z,18.50
2022-10-17T16:45:41.869Z,21.50
2022-10-17T16:48:15.371Z,20.60
2022-10-17T16:50:43.105Z,21.90
2022-10-17T16:53:10.953Z,23.00
2022-10-17T16:55:38.705Z,21.40
2022-10-17T16:58:06.747Z,23.80
2022-10-17T17:00:34.857Z,22.60
2022-10-17T17:03:02.670Z,20.60
2022-10-17T17:05:30.431Z,22.20
2022-10-17T17:07:59.579Z,19.90
2022-10-17T17:10:27.323Z,23.90
2022-10-17T17:12:55.918Z,25.00
2022-10-17T17:15:23.752Z,21.40
2022-10-17T17:17:54.972Z,24.00
2022-10-17T17:20:23.516Z,22.60
2022-10-17T17:22:52.576Z,20.20
2022-10-17T17:25:22.640Z,24.10
2022-10-17T17:27:50.575Z,23.90
2022-10-17T17:30:18.629Z,24.00
2022-10-17T17:32:46.823Z,22.90
2022-10-17T17:35:14.886Z,22.70
2022-10-17T17:37:42.718Z,22.30
2022-10-17T17:40:11.612Z,25.40
2022-10-17T17:42:39.558Z,23.50
2022-10-17T17:45:08.189Z,24.40
2022-10-17T17:47:36.538Z,28.90
2022-10-17T17:50:04.980Z,25.80
2022-10-17T17:52:33.033Z,26.70
2022-10-17T17:55:01.043Z,23.90
2022-10-17T17:57:30.326Z,21.80
2022-10-17T17:59:58.062Z,19.20
2022-10-17T18:02:25.923Z,22.00
2022-10-17T18:04:53.690Z,24.50
2022-10-17T18:07:21.400Z,25.10
2022-10-17T18:09:51.071Z,25.50
2022-10-17T18:12:18.981Z,24.60
2022-10-17T18:14:48.343Z,23.20
2022-10-17T18:17:16.084Z,23.00
2022-10-17T18:19:43.863Z,27.60
2022-10-17T18:22:11.762Z,25.10
2022-10-17T18:24:39.480Z,25.20
2022-10-17T18:27:07.606Z,24.70
2022-10-17T18:29:35.900Z,24.60
2022-10-17T18:32:04.889Z,24.60
2022-10-17T18:34:32.732Z,24.10
2022-10-17T18:37:02.831Z,24.60
2022-10-17T18:39:30.902Z,25.10
2022-10-17T18:41:58.916Z,25.90
2022-10-17T18:44:27.218Z,24.50
2022-10-17T18:46:58.566Z,29.30
2022-10-17T18:49:29.554Z,22.70
2022-10-17T18:52:00.632Z,24.70
2022-10-17T18:54:29.664Z,26.10
2022-10-17T18:56:57.669Z,22.10
2022-10-17T18:59:25.522Z,19.50
2022-10-17T19:01:53.414Z,22.60
2022-10-17T19:04:21.790Z,22.00
2022-10-17T19:06:49.884Z,23.40
2022-10-17T19:09:20.065Z,18.50
2022-10-17T19:11:47.829Z,20.10
2022-10-17T19:14:15.679Z,25.90
2022-10-17T19:16:49.603Z,22.30
2022-10-17T19:19:23.589Z,21.60
2022-10-17T19:21:52.806Z,18.70
2022-10-17T19:24:25.156Z,18.10
2022-10-17T19:26:58.273Z,20.20
2022-10-17T19:29:31.323Z,19.70
2022-10-17T19:32:01.206Z,19.80
2022-10-17T19:34:29.621Z,20.60
2022-10-17T19:36:58.257Z,17.30
2022-10-17T19:39:26.815Z,23.00
2022-10-17T19:41:54.709Z,21.60
2022-10-17T19:44:22.667Z,18.30
2022-10-17T19:46:50.443Z,18.70
2022-10-17T19:49:18.562Z,14.90
2022-10-17T19:51:46.902Z,17.70
2022-10-17T19:54:18.404Z,16.20
2022-10-17T19:56:49.663Z,20.30
2022-10-17T19:59:19.002Z,18.10
2022-10-17T20:01:47.855Z,16.90
2022-10-17T20:04:17.166Z,18.80
2022-10-17T20:06:47.323Z,19.20
2022-10-17T20:09:17.089Z,20.90
2022-10-17T20:11:45.501Z,18.60
2022-10-17T20:14:13.571Z,18.00
2022-10-17T20:16:41.981Z,16.50
2022-10-17T20:19:13.079Z,18.00
2022-10-17T20:21:40.887Z,19.00
2022-10-17T20:24:16.592Z,19.40
2022-10-17T20:26:46.045Z,15.20
2022-10-17T20:29:21.376Z,15.80
2022-10-17T20:31:49.772Z,18.00
2022-10-17T20:34:19.779Z,20.00
2022-10-17T20:36:48.814Z,15.60
2022-10-17T20:39:19.223Z,15.40
2022-10-17T20:41:47.562Z,15.50
2022-10-17T20:44:15.822Z,14.10
2022-10-17T20:46:52.929Z,16.30
2022-10-17T20:49:29.176Z,17.90
2022-10-17T20:51:57.763Z,15.70
2022-10-17T20:54:29.609Z,15.70
2022-10-17T20:56:59.853Z,15.80
2022-10-17T20:59:31.095Z,17.90
2022-10-17T21:01:58.842Z,14.70
2022-10-17T21:04:45.234Z,16.10
2022-10-17T21:07:14.992Z,14.10
2022-10-17T21:09:42.668Z,14.40
2022-10-17T21:12:18.172Z,15.80
2022-10-17T21:14:53.954Z,14.90
2022-10-17T21:17:21.811Z,17.10
2022-10-17T21:19:49.934Z,13.80
2022-10-17T21:22:17.837Z,17.10
2022-10-17T21:24:45.670Z,14.90
2022-10-17T21:27:17.169Z,13.50
2022-10-17T21:29:45.221Z,13.40
2022-10-17T21:32:25.141Z,18.70
2022-10-17T21:35:00.656Z,15.30
2022-10-17T21:37:28.589Z,15.60
2022-10-17T21:39:56.277Z,14.10
2022-10-17T21:42:24.014Z,12.90
2022-10-17T21:44:51.735Z,13.10
2022-10-17T21:47:20.249Z,13.40
2022-10-17T21:49:49.952Z,15.70
2022-10-17T21:52:17.679Z,16.10
2022-10-17T21:54:45.370Z,14.80
2022-10-17T21:57:13.153Z,14.80
2022-10-17T21:59:40.873Z,12.80
2022-10-17T22:02:08.650Z,12.70
2022-10-17T22:04:36.442Z,15.00
2022-10-17T22:07:04.187Z,12.60
2022-10-17T22:09:31.866Z,14.10
2022-10-17T22:11:59.622Z,13.90
2022-10-17T22:14:28.344Z,11.40
2022-10-17T22:16:56.331Z,11.10
2022-10-17T22:19:26.818Z,13.10
2022-10-17T22:21:55.565Z,11.90
2022-10-17T22:24:23.732Z,11.70
2022-10-17T22:26:52.180Z,9.80
2022-10-17T22:29:21.013Z,12.10
2022-10-17T22:31:49.066Z,12.60
2022-10-17T22:34:18.673Z,9.70
2022-10-17T22:36:47.913Z,12.40
2022-10-17T22:39:15.683Z,9.10
2022-10-17T22:41:43.382Z,10.50
2022-10-17T22:44:11.098Z,10.70
2022-10-17T22:46:38.825Z,10.80
2022-10-17T22:49:06.524Z,12.90
2022-10-17T22:51:34.433Z,12.50
2022-10-17T22:54:02.486Z,13.40
2022-10-17T22:56:30.281Z,13.80
2022-10-17T22:58:58.207Z,12.60
2022-10-17T23:01:26.526Z,12.20
2022-10-17T23:03:54.353Z,11.30
2022-10-17T23:06:23.912Z,14.40
2022-10-17T23:08:52.560Z,12.90
2022-10-17T23:11:21.154Z,11.60
2022-10-17T23:13:51.338Z,11.00
2022-10-17T23:16:19.025Z,11.00
2022-10-17T23:18:46.862Z,15.20
2022-10-17T23:21:14.656Z,11.80
2022-10-17T23:23:42.514Z,12.10
2022-10-17T23:26:13.568Z,12.40
2022-10-17T23:28:42.849Z,11.60
2022-10-17T23:31:13.585Z,12.50
2022-10-17T23:33:42.779Z,12.70
2022-10-17T23:36:14.048Z,13.80
2022-10-17T23:38:44.184Z,11.20
2022-10-17T23:41:12.754Z,11.20
2022-10-17T23:43:41.529Z,11.50
2022-10-17T23:46:09.732Z,12.40
2022-10-17T23:48:38.898Z,14.00
2022-10-17T23:51:08.900Z,13.10
2022-10-17T23:53:38.308Z,11.70
2022-10-17T23:56:08.242Z,12.30
2022-10-17T23:58:36.509Z,12.20
